Terminal Aerodrome Forecast
Issued by NWS Lake Charles, LA

Home | Current Version | Previous Version | Text Only | Print | Product List | Glossary On
Versions: 1 2 3 4 5 6 7 8 9 10 11 12 13 14 15 16 17 18 19 20
000
FTUS44 KLCH 281141
TAFAEX
TAF
KAEX 281141Z 2812/2912 00000KT 1SM BR SCT004
      TEMPO 2812/2814 1/2SM FG VV002
     FM281400 08006KT P6SM SCT030 BKN100
     FM281700 08010KT P6SM VCTS FEW015CB SCT030 BKN050
     FM290100 VRB03KT P6SM FEW050 SCT100=

USA.gov is the U.S. government's official web portal to all federal, state and local government web resources and services.